sensor_id;sensor_type;location;lat;lon;timestamp;noise_LAeq;noise_LA_min;noise_LA_max;noise_LA01;noise_LA95
67900;Laerm;54700;51.796;10.956;2022-11-11T00:00:31;58.06;33.07;73.74;;
67900;Laerm;54700;51.796;10.956;2022-11-11T00:02:59;54.46;35.30;70.38;;
67900;Laerm;54700;51.796;10.956;2022-11-11T00:05:27;45.94;36.90;60.03;;
67900;Laerm;54700;51.796;10.956;2022-11-11T00:07:54;52.19;36.59;68.49;;
67900;Laerm;54700;51.796;10.956;2022-11-11T00:10:24;49.82;34.93;63.86;;
67900;Laerm;54700;51.796;10.956;2022-11-11T00:12:51;43.99;34.92;57.98;;
67900;Laerm;54700;51.796;10.956;2022-11-11T00:15:18;43.60;34.39;57.05;;
67900;Laerm;54700;51.796;10.956;2022-11-11T00:17:44;53.50;34.59;67.98;;
67900;Laerm;54700;51.796;10.956;2022-11-11T00:20:30;39.71;33.30;55.79;;
67900;Laerm;54700;51.796;10.956;2022-11-11T00:23:19;40.00;33.34;59.65;;
67900;Laerm;54700;51.796;10.956;2022-11-11T00:26:04;43.70;35.35;61.94;;
67900;Laerm;54700;51.796;10.956;2022-11-11T00:28:31;38.56;33.04;55.91;;
67900;Laerm;54700;51.796;10.956;2022-11-11T00:31:02;37.83;32.91;55.54;;
67900;Laerm;54700;51.796;10.956;2022-11-11T00:33:29;38.80;32.16;51.37;;
67900;Laerm;54700;51.796;10.956;2022-11-11T00:35:58;37.48;32.29;50.16;;
67900;Laerm;54700;51.796;10.956;2022-11-11T00:38:24;50.48;32.39;65.38;;
67900;Laerm;54700;51.796;10.956;2022-11-11T00:41:09;35.93;31.47;48.31;;
67900;Laerm;54700;51.796;10.956;2022-11-11T00:43:36;36.57;30.81;47.59;;
67900;Laerm;54700;51.796;10.956;2022-11-11T00:46:04;38.31;31.87;50.33;;
67900;Laerm;54700;51.796;10.956;2022-11-11T00:48:48;33.46;29.55;42.89;;
67900;Laerm;54700;51.796;10.956;2022-11-11T00:51:34;36.34;30.39;56.22;;
67900;Laerm;54700;51.796;10.956;2022-11-11T00:54:01;33.38;30.43;40.17;;
67900;Laerm;54700;51.796;10.956;2022-11-11T00:56:27;38.80;32.73;47.78;;
67900;Laerm;54700;51.796;10.956;2022-11-11T00:58:54;51.31;31.22;66.56;;
67900;Laerm;54700;51.796;10.956;2022-11-11T01:01:21;35.78;29.89;46.13;;
67900;Laerm;54700;51.796;10.956;2022-11-11T01:03:48;33.36;29.52;40.32;;
67900;Laerm;54700;51.796;10.956;2022-11-11T01:06:15;32.13;29.04;46.52;;
67900;Laerm;54700;51.796;10.956;2022-11-11T01:08:43;33.25;28.64;44.46;;
67900;Laerm;54700;51.796;10.956;2022-11-11T01:11:11;31.41;28.63;41.00;;
67900;Laerm;54700;51.796;10.956;2022-11-11T01:13:40;46.15;28.18;62.55;;
67900;Laerm;54700;51.796;10.956;2022-11-11T01:16:10;37.33;29.03;46.11;;
67900;Laerm;54700;51.796;10.956;2022-11-11T01:18:37;31.61;28.71;41.31;;
67900;Laerm;54700;51.796;10.956;2022-11-11T01:21:06;51.61;29.00;67.04;;
67900;Laerm;54700;51.796;10.956;2022-11-11T01:23:36;30.81;28.14;41.64;;
67900;Laerm;54700;51.796;10.956;2022-11-11T01:26:06;29.86;27.56;38.43;;
67900;Laerm;54700;51.796;10.956;2022-11-11T01:28:34;30.03;27.79;41.13;;
67900;Laerm;54700;51.796;10.956;2022-11-11T01:31:03;29.61;27.77;44.28;;
67900;Laerm;54700;51.796;10.956;2022-11-11T01:33:30;29.69;27.77;39.24;;
67900;Laerm;54700;51.796;10.956;2022-11-11T01:36:03;49.46;27.32;65.36;;
67900;Laerm;54700;51.796;10.956;2022-11-11T01:38:29;30.66;28.10;41.88;;
67900;Laerm;54700;51.796;10.956;2022-11-11T01:40:56;29.52;27.71;37.57;;
67900;Laerm;54700;51.796;10.956;2022-11-11T01:43:25;29.47;27.50;47.66;;
67900;Laerm;54700;51.796;10.956;2022-11-11T01:45:56;51.83;27.61;68.62;;
67900;Laerm;54700;51.796;10.956;2022-11-11T01:48:28;30.57;27.82;43.52;;
67900;Laerm;54700;51.796;10.956;2022-11-11T01:51:19;29.16;27.71;41.33;;
67900;Laerm;54700;51.796;10.956;2022-11-11T01:53:49;30.50;27.99;41.13;;
67900;Laerm;54700;51.796;10.956;2022-11-11T01:56:18;30.59;28.42;41.36;;
67900;Laerm;54700;51.796;10.956;2022-11-11T01:58:52;31.19;27.94;40.53;;
67900;Laerm;54700;51.796;10.956;2022-11-11T02:01:21;30.06;27.97;39.45;;
67900;Laerm;54700;51.796;10.956;2022-11-11T02:03:50;30.02;28.11;39.23;;
67900;Laerm;54700;51.796;10.956;2022-11-11T02:06:37;29.75;27.89;40.75;;
67900;Laerm;54700;51.796;10.956;2022-11-11T02:09:06;48.16;28.60;63.61;;
67900;Laerm;54700;51.796;10.956;2022-11-11T02:11:34;30.83;28.03;41.60;;
67900;Laerm;54700;51.796;10.956;2022-11-11T02:14:20;30.56;28.11;44.91;;
67900;Laerm;54700;51.796;10.956;2022-11-11T02:17:07;31.75;28.45;42.19;;
67900;Laerm;54700;51.796;10.956;2022-11-11T02:19:45;48.98;28.71;64.61;;
67900;Laerm;54700;51.796;10.956;2022-11-11T02:22:23;32.76;28.85;40.85;;
67900;Laerm;54700;51.796;10.956;2022-11-11T02:24:55;32.18;29.24;42.96;;
67900;Laerm;54700;51.796;10.956;2022-11-11T02:27:24;30.99;28.65;40.91;;
67900;Laerm;54700;51.796;10.956;2022-11-11T02:29:55;30.82;28.45;41.89;;
67900;Laerm;54700;51.796;10.956;2022-11-11T02:32:22;53.37;28.96;69.70;;
67900;Laerm;54700;51.796;10.956;2022-11-11T02:34:49;31.19;28.78;41.29;;
67900;Laerm;54700;51.796;10.956;2022-11-11T02:37:19;50.89;29.89;67.29;;
67900;Laerm;54700;51.796;10.956;2022-11-11T02:39:48;30.93;28.67;40.46;;
67900;Laerm;54700;51.796;10.956;2022-11-11T02:42:18;31.92;28.94;41.29;;
67900;Laerm;54700;51.796;10.956;2022-11-11T02:44:46;30.74;28.09;41.84;;
67900;Laerm;54700;51.796;10.956;2022-11-11T02:47:15;33.82;29.14;42.25;;
67900;Laerm;54700;51.796;10.956;2022-11-11T02:49:42;31.62;28.28;43.25;;
67900;Laerm;54700;51.796;10.956;2022-11-11T02:52:09;32.53;28.58;40.74;;
67900;Laerm;54700;51.796;10.956;2022-11-11T02:54:35;32.73;29.25;41.36;;
67900;Laerm;54700;51.796;10.956;2022-11-11T02:57:05;34.90;31.43;44.21;;
67900;Laerm;54700;51.796;10.956;2022-11-11T02:59:38;51.01;31.65;66.83;;
67900;Laerm;54700;51.796;10.956;2022-11-11T03:02:06;46.79;31.41;62.51;;
67900;Laerm;54700;51.796;10.956;2022-11-11T03:04:35;34.75;30.83;41.41;;
67900;Laerm;54700;51.796;10.956;2022-11-11T03:07:04;35.08;30.43;45.31;;
67900;Laerm;54700;51.796;10.956;2022-11-11T03:09:31;35.13;30.40;50.55;;
67900;Laerm;54700;51.796;10.956;2022-11-11T03:11:58;53.14;32.93;68.01;;
67900;Laerm;54700;51.796;10.956;2022-11-11T03:14:26;55.49;33.39;72.43;;
67900;Laerm;54700;51.796;10.956;2022-11-11T03:16:57;38.63;33.76;47.11;;
67900;Laerm;54700;51.796;10.956;2022-11-11T03:19:41;35.29;30.80;45.88;;
67900;Laerm;54700;51.796;10.956;2022-11-11T03:22:09;57.53;30.35;71.15;;
67900;Laerm;54700;51.796;10.956;2022-11-11T03:24:36;47.78;31.13;62.95;;
67900;Laerm;54700;51.796;10.956;2022-11-11T03:27:20;54.17;32.91;69.81;;
67900;Laerm;54700;51.796;10.956;2022-11-11T03:29:47;34.88;30.85;47.27;;
67900;Laerm;54700;51.796;10.956;2022-11-11T03:32:16;35.17;31.44;42.55;;
67900;Laerm;54700;51.796;10.956;2022-11-11T03:34:43;49.11;31.43;64.74;;
67900;Laerm;54700;51.796;10.956;2022-11-11T03:37:11;47.66;31.56;61.52;;
67900;Laerm;54700;51.796;10.956;2022-11-11T03:39:58;58.04;31.05;71.91;;
67900;Laerm;54700;51.796;10.956;2022-11-11T03:42:25;54.02;30.83;70.58;;
67900;Laerm;54700;51.796;10.956;2022-11-11T03:44:51;52.84;30.21;67.20;;
67900;Laerm;54700;51.796;10.956;2022-11-11T03:47:22;34.53;30.24;52.89;;
67900;Laerm;54700;51.796;10.956;2022-11-11T03:49:49;52.14;30.76;68.36;;
67900;Laerm;54700;51.796;10.956;2022-11-11T03:52:16;53.54;29.86;66.91;;
67900;Laerm;54700;51.796;10.956;2022-11-11T03:54:43;52.08;30.27;69.77;;
67900;Laerm;54700;51.796;10.956;2022-11-11T03:57:10;48.89;31.38;65.32;;
67900;Laerm;54700;51.796;10.956;2022-11-11T03:59:55;51.98;30.22;69.79;;
67900;Laerm;54700;51.796;10.956;2022-11-11T04:02:23;53.15;29.85;66.85;;
67900;Laerm;54700;51.796;10.956;2022-11-11T04:05:08;50.77;29.87;67.51;;
67900;Laerm;54700;51.796;10.956;2022-11-11T04:07:52;53.57;31.71;68.96;;
67900;Laerm;54700;51.796;10.956;2022-11-11T04:10:36;52.95;31.13;70.44;;
67900;Laerm;54700;51.796;10.956;2022-11-11T04:13:04;49.39;31.46;64.76;;
67900;Laerm;54700;51.796;10.956;2022-11-11T04:16:00;57.34;33.08;69.34;;
67900;Laerm;54700;51.796;10.956;2022-11-11T04:18:35;56.41;32.14;69.77;;
67900;Laerm;54700;51.796;10.956;2022-11-11T04:21:22;56.67;32.99;71.23;;
67900;Laerm;54700;51.796;10.956;2022-11-11T04:24:07;58.67;34.16;74.05;;
67900;Laerm;54700;51.796;10.956;2022-11-11T04:26:53;58.47;35.61;72.06;;
67900;Laerm;54700;51.796;10.956;2022-11-11T04:29:20;58.18;36.71;71.49;;
67900;Laerm;54700;51.796;10.956;2022-11-11T04:31:57;56.62;35.03;70.11;;
67900;Laerm;54700;51.796;10.956;2022-11-11T04:34:44;57.35;37.01;70.79;;
67900;Laerm;54700;51.796;10.956;2022-11-11T04:37:12;53.22;34.20;68.72;;
67900;Laerm;54700;51.796;10.956;2022-11-11T04:39:39;58.44;36.34;70.94;;
67900;Laerm;54700;51.796;10.956;2022-11-11T04:42:25;58.91;37.75;72.89;;
67900;Laerm;54700;51.796;10.956;2022-11-11T04:44:55;56.82;36.72;68.10;;
67900;Laerm;54700;51.796;10.956;2022-11-11T04:47:52;60.58;37.09;72.68;;
67900;Laerm;54700;51.796;10.956;2022-11-11T04:50:21;61.40;41.13;69.80;;
67900;Laerm;54700;51.796;10.956;2022-11-11T04:52:48;59.89;41.49;70.04;;
67900;Laerm;54700;51.796;10.956;2022-11-11T04:55:16;61.78;40.08;71.34;;
67900;Laerm;54700;51.796;10.956;2022-11-11T04:58:00;58.70;42.66;71.00;;
67900;Laerm;54700;51.796;10.956;2022-11-11T05:00:28;60.59;42.22;72.82;;
67900;Laerm;54700;51.796;10.956;2022-11-11T05:02:56;57.64;43.82;69.36;;
67900;Laerm;54700;51.796;10.956;2022-11-11T05:05:43;59.12;41.64;77.65;;
67900;Laerm;54700;51.796;10.956;2022-11-11T05:08:29;57.75;41.84;69.68;;
67900;Laerm;54700;51.796;10.956;2022-11-11T05:11:13;54.10;41.75;66.91;;
67900;Laerm;54700;51.796;10.956;2022-11-11T05:13:40;58.59;43.10;70.76;;
67900;Laerm;54700;51.796;10.956;2022-11-11T05:16:27;59.44;45.72;70.93;;
67900;Laerm;54700;51.796;10.956;2022-11-11T05:19:14;62.84;44.74;73.64;;
67900;Laerm;54700;51.796;10.956;2022-11-11T05:22:08;60.14;44.81;71.66;;
67900;Laerm;54700;51.796;10.956;2022-11-11T05:24:36;60.52;44.53;70.88;;
67900;Laerm;54700;51.796;10.956;2022-11-11T05:27:21;60.33;43.23;73.93;;
67900;Laerm;54700;51.796;10.956;2022-11-11T05:29:48;61.49;48.67;71.53;;
67900;Laerm;54700;51.796;10.956;2022-11-11T05:32:15;61.01;45.81;71.63;;
67900;Laerm;54700;51.796;10.956;2022-11-11T05:34:44;61.94;46.42;71.95;;
67900;Laerm;54700;51.796;10.956;2022-11-11T05:37:13;62.49;47.52;75.14;;
67900;Laerm;54700;51.796;10.956;2022-11-11T05:39:40;61.00;41.20;75.38;;
67900;Laerm;54700;51.796;10.956;2022-11-11T05:42:09;61.22;43.99;69.85;;
67900;Laerm;54700;51.796;10.956;2022-11-11T05:44:36;62.19;41.03;72.11;;
67900;Laerm;54700;51.796;10.956;2022-11-11T05:47:03;61.37;45.49;70.47;;
67900;Laerm;54700;51.796;10.956;2022-11-11T05:49:30;62.00;43.27;73.85;;
67900;Laerm;54700;51.796;10.956;2022-11-11T05:51:58;62.92;47.77;72.74;;
67900;Laerm;54700;51.796;10.956;2022-11-11T05:54:28;61.02;43.37;70.07;;
67900;Laerm;54700;51.796;10.956;2022-11-11T05:56:56;64.12;50.51;79.99;;
67900;Laerm;54700;51.796;10.956;2022-11-11T05:59:26;64.11;51.59;75.67;;
67900;Laerm;54700;51.796;10.956;2022-11-11T06:01:54;63.44;44.67;74.44;;
67900;Laerm;54700;51.796;10.956;2022-11-11T06:04:32;63.22;48.41;70.93;;
67900;Laerm;54700;51.796;10.956;2022-11-11T06:10:25;62.11;45.88;71.49;;
67900;Laerm;54700;51.796;10.956;2022-11-11T06:13:01;61.86;44.68;70.57;;
67900;Laerm;54700;51.796;10.956;2022-11-11T06:15:30;62.87;51.10;70.34;;
67900;Laerm;54700;51.796;10.956;2022-11-11T06:18:00;63.10;42.77;70.43;;
67900;Laerm;54700;51.796;10.956;2022-11-11T06:20:30;64.45;47.36;75.58;;
67900;Laerm;54700;51.796;10.956;2022-11-11T06:23:03;61.38;40.90;71.30;;
67900;Laerm;54700;51.796;10.956;2022-11-11T06:25:32;62.57;41.99;78.00;;
67900;Laerm;54700;51.796;10.956;2022-11-11T06:28:18;61.89;40.11;71.53;;
67900;Laerm;54700;51.796;10.956;2022-11-11T06:30:45;64.25;45.51;71.99;;
67900;Laerm;54700;51.796;10.956;2022-11-11T06:33:17;64.72;45.14;74.26;;
67900;Laerm;54700;51.796;10.956;2022-11-11T06:35:48;62.67;48.77;71.79;;
67900;Laerm;54700;51.796;10.956;2022-11-11T06:38:22;61.86;42.77;70.53;;
67900;Laerm;54700;51.796;10.956;2022-11-11T06:40:51;63.08;47.63;74.08;;
67900;Laerm;54700;51.796;10.956;2022-11-11T06:43:19;62.64;44.96;71.50;;
67900;Laerm;54700;51.796;10.956;2022-11-11T06:45:49;62.49;44.12;70.65;;
67900;Laerm;54700;51.796;10.956;2022-11-11T06:48:17;62.66;41.89;72.87;;
67900;Laerm;54700;51.796;10.956;2022-11-11T06:50:45;63.29;43.85;75.82;;
67900;Laerm;54700;51.796;10.956;2022-11-11T06:53:16;61.39;39.83;77.80;;
67900;Laerm;54700;51.796;10.956;2022-11-11T06:55:54;62.89;50.47;74.36;;
67900;Laerm;54700;51.796;10.956;2022-11-11T06:59:05;64.88;48.79;74.34;;
67900;Laerm;54700;51.796;10.956;2022-11-11T07:01:35;64.06;45.61;78.01;;
67900;Laerm;54700;51.796;10.956;2022-11-11T07:04:23;63.07;44.40;71.61;;
67900;Laerm;54700;51.796;10.956;2022-11-11T07:06:51;62.63;43.58;71.81;;
67900;Laerm;54700;51.796;10.956;2022-11-11T07:09:21;60.88;38.39;71.32;;
67900;Laerm;54700;51.796;10.956;2022-11-11T07:11:52;61.53;36.72;73.64;;
67900;Laerm;54700;51.796;10.956;2022-11-11T07:14:19;62.55;35.90;73.25;;
67900;Laerm;54700;51.796;10.956;2022-11-11T07:16:47;64.06;45.54;72.40;;
67900;Laerm;54700;51.796;10.956;2022-11-11T07:19:21;62.64;39.12;71.62;;
67900;Laerm;54700;51.796;10.956;2022-11-11T07:22:00;64.26;45.22;75.39;;
67900;Laerm;54700;51.796;10.956;2022-11-11T07:24:29;61.69;39.51;71.18;;
67900;Laerm;54700;51.796;10.956;2022-11-11T07:26:58;59.13;38.74;70.11;;
67900;Laerm;54700;51.796;10.956;2022-11-11T07:29:26;63.45;39.65;77.21;;
67900;Laerm;54700;51.796;10.956;2022-11-11T07:31:54;62.94;43.31;71.98;;
67900;Laerm;54700;51.796;10.956;2022-11-11T07:34:22;64.04;40.71;76.46;;
67900;Laerm;54700;51.796;10.956;2022-11-11T07:36:49;62.11;41.95;71.16;;
67900;Laerm;54700;51.796;10.956;2022-11-11T07:39:19;61.27;40.67;71.78;;
67900;Laerm;54700;51.796;10.956;2022-11-11T07:41:49;64.74;41.52;79.70;;
67900;Laerm;54700;51.796;10.956;2022-11-11T07:44:21;60.77;39.16;69.56;;
67900;Laerm;54700;51.796;10.956;2022-11-11T07:46:53;63.94;42.12;72.13;;
67900;Laerm;54700;51.796;10.956;2022-11-11T07:49:20;62.00;47.21;71.27;;
67900;Laerm;54700;51.796;10.956;2022-11-11T07:51:47;63.76;41.65;80.93;;
67900;Laerm;54700;51.796;10.956;2022-11-11T07:54:15;64.64;47.19;75.15;;
67900;Laerm;54700;51.796;10.956;2022-11-11T07:56:42;64.26;42.42;73.39;;
67900;Laerm;54700;51.796;10.956;2022-11-11T07:59:09;63.02;42.57;74.66;;
67900;Laerm;54700;51.796;10.956;2022-11-11T08:01:39;62.52;47.24;70.40;;
67900;Laerm;54700;51.796;10.956;2022-11-11T08:04:13;64.44;46.87;76.13;;
67900;Laerm;54700;51.796;10.956;2022-11-11T08:06:48;63.00;40.62;72.25;;
67900;Laerm;54700;51.796;10.956;2022-11-11T08:09:16;60.68;42.25;69.03;;
67900;Laerm;54700;51.796;10.956;2022-11-11T08:11:44;62.12;40.99;71.34;;
67900;Laerm;54700;51.796;10.956;2022-11-11T08:14:29;61.76;41.83;70.90;;
67900;Laerm;54700;51.796;10.956;2022-11-11T08:17:00;62.51;45.05;73.36;;
67900;Laerm;54700;51.796;10.956;2022-11-11T08:19:28;64.79;44.67;76.56;;
67900;Laerm;54700;51.796;10.956;2022-11-11T08:21:55;63.39;46.65;73.98;;
67900;Laerm;54700;51.796;10.956;2022-11-11T08:24:23;63.45;44.96;71.76;;
67900;Laerm;54700;51.796;10.956;2022-11-11T08:26:50;64.65;47.51;80.39;;
67900;Laerm;54700;51.796;10.956;2022-11-11T08:29:18;60.72;45.32;70.51;;
67900;Laerm;54700;51.796;10.956;2022-11-11T08:31:50;64.81;44.51;82.44;;
67900;Laerm;54700;51.796;10.956;2022-11-11T08:34:22;62.76;47.32;74.10;;
67900;Laerm;54700;51.796;10.956;2022-11-11T08:36:59;61.73;47.92;71.57;;
67900;Laerm;54700;51.796;10.956;2022-11-11T08:39:58;63.23;49.71;77.86;;
67900;Laerm;54700;51.796;10.956;2022-11-11T08:42:33;61.66;45.49;72.60;;
67900;Laerm;54700;51.796;10.956;2022-11-11T08:45:17;62.38;49.66;72.85;;
67900;Laerm;54700;51.796;10.956;2022-11-11T08:48:14;63.91;48.38;71.86;;
67900;Laerm;54700;51.796;10.956;2022-11-11T08:51:11;62.67;47.35;71.44;;
67900;Laerm;54700;51.796;10.956;2022-11-11T08:54:15;64.25;48.84;75.72;;
67900;Laerm;54700;51.796;10.956;2022-11-11T08:56:55;63.83;48.87;77.30;;
67900;Laerm;54700;51.796;10.956;2022-11-11T09:03:00;67.04;50.90;80.07;;
67900;Laerm;54700;51.796;10.956;2022-11-11T09:08:56;61.93;46.25;75.16;;
67900;Laerm;54700;51.796;10.956;2022-11-11T09:11:26;63.28;46.58;71.04;;
67900;Laerm;54700;51.796;10.956;2022-11-11T09:14:00;61.94;49.34;68.76;;
67900;Laerm;54700;51.796;10.956;2022-11-11T09:16:30;60.65;49.16;68.46;;
67900;Laerm;54700;51.796;10.956;2022-11-11T09:18:57;64.09;53.09;72.02;;
67900;Laerm;54700;51.796;10.956;2022-11-11T09:21:28;62.37;51.12;71.30;;
67900;Laerm;54700;51.796;10.956;2022-11-11T09:23:57;62.26;47.88;69.68;;
67900;Laerm;54700;51.796;10.956;2022-11-11T09:26:27;62.54;48.04;70.14;;
67900;Laerm;54700;51.796;10.956;2022-11-11T09:28:56;62.22;48.76;71.65;;
67900;Laerm;54700;51.796;10.956;2022-11-11T09:31:24;63.95;51.91;73.30;;
67900;Laerm;54700;51.796;10.956;2022-11-11T09:33:52;62.78;49.65;73.34;;
67900;Laerm;54700;51.796;10.956;2022-11-11T09:36:25;62.56;49.14;71.86;;
67900;Laerm;54700;51.796;10.956;2022-11-11T09:39:09;60.70;50.49;70.27;;
67900;Laerm;54700;51.796;10.956;2022-11-11T09:42:07;64.08;52.02;75.56;;
67900;Laerm;54700;51.796;10.956;2022-11-11T09:45:21;63.79;50.01;72.16;;
67900;Laerm;54700;51.796;10.956;2022-11-11T09:48:21;64.17;49.55;72.44;;
67900;Laerm;54700;51.796;10.956;2022-11-11T09:50:55;64.29;48.11;71.84;;
67900;Laerm;54700;51.796;10.956;2022-11-11T09:53:27;63.04;46.91;70.04;;
67900;Laerm;54700;51.796;10.956;2022-11-11T09:56:01;62.13;45.21;73.32;;
67900;Laerm;54700;51.796;10.956;2022-11-11T09:58:34;63.36;48.46;76.40;;
67900;Laerm;54700;51.796;10.956;2022-11-11T10:01:08;62.55;45.99;74.25;;
67900;Laerm;54700;51.796;10.956;2022-11-11T10:03:40;62.74;48.27;75.35;;
67900;Laerm;54700;51.796;10.956;2022-11-11T10:06:16;63.81;46.12;78.72;;
67900;Laerm;54700;51.796;10.956;2022-11-11T10:08:50;61.01;42.53;71.55;;
67900;Laerm;54700;51.796;10.956;2022-11-11T10:11:29;62.86;45.50;71.81;;
67900;Laerm;54700;51.796;10.956;2022-11-11T10:14:06;62.60;48.20;71.98;;
67900;Laerm;54700;51.796;10.956;2022-11-11T10:16:50;62.11;46.94;71.34;;
67900;Laerm;54700;51.796;10.956;2022-11-11T10:19:57;62.89;50.05;72.97;;
67900;Laerm;54700;51.796;10.956;2022-11-11T10:22:34;61.64;43.62;71.89;;
67900;Laerm;54700;51.796;10.956;2022-11-11T10:25:23;62.84;45.21;71.80;;
67900;Laerm;54700;51.796;10.956;2022-11-11T10:28:01;63.30;43.81;70.02;;
67900;Laerm;54700;51.796;10.956;2022-11-11T10:30:32;62.96;49.59;71.30;;
67900;Laerm;54700;51.796;10.956;2022-11-11T10:33:04;64.74;53.09;73.79;;
67900;Laerm;54700;51.796;10.956;2022-11-11T10:35:43;64.74;47.57;74.95;;
67900;Laerm;54700;51.796;10.956;2022-11-11T10:38:44;67.89;51.74;86.38;;
67900;Laerm;54700;51.796;10.956;2022-11-11T10:41:48;65.47;46.31;83.81;;
67900;Laerm;54700;51.796;10.956;2022-11-11T10:45:02;63.79;49.26;75.53;;
67900;Laerm;54700;51.796;10.956;2022-11-11T10:48:14;61.80;44.11;68.90;;
67900;Laerm;54700;51.796;10.956;2022-11-11T10:54:42;62.50;43.40;74.66;;
67900;Laerm;54700;51.796;10.956;2022-11-11T10:57:31;61.86;42.64;71.08;;
67900;Laerm;54700;51.796;10.956;2022-11-11T11:00:29;63.11;45.23;73.79;;
67900;Laerm;54700;51.796;10.956;2022-11-11T11:03:22;65.47;53.57;74.62;;
67900;Laerm;54700;51.796;10.956;2022-11-11T11:06:05;64.47;45.14;76.42;;
67900;Laerm;54700;51.796;10.956;2022-11-11T11:08:51;63.54;49.43;73.25;;
67900;Laerm;54700;51.796;10.956;2022-11-11T11:11:23;63.01;45.66;71.82;;
67900;Laerm;54700;51.796;10.956;2022-11-11T11:13:58;62.37;46.17;72.59;;
67900;Laerm;54700;51.796;10.956;2022-11-11T11:16:33;59.73;44.00;70.45;;
67900;Laerm;54700;51.796;10.956;2022-11-11T11:19:14;62.84;48.55;70.45;;
67900;Laerm;54700;51.796;10.956;2022-11-11T11:21:58;64.64;48.82;75.06;;
67900;Laerm;54700;51.796;10.956;2022-11-11T11:24:34;64.53;48.50;74.81;;
67900;Laerm;54700;51.796;10.956;2022-11-11T11:27:04;61.50;41.08;69.86;;
67900;Laerm;54700;51.796;10.956;2022-11-11T11:29:34;62.94;45.01;71.53;;
67900;Laerm;54700;51.796;10.956;2022-11-11T11:32:13;62.86;48.82;72.21;;
67900;Laerm;54700;51.796;10.956;2022-11-11T11:34:46;62.80;42.78;72.38;;
67900;Laerm;54700;51.796;10.956;2022-11-11T11:37:15;61.95;43.27;70.08;;
67900;Laerm;54700;51.796;10.956;2022-11-11T11:39:44;63.16;48.17;73.69;;
67900;Laerm;54700;51.796;10.956;2022-11-11T11:42:28;62.48;44.58;72.70;;
67900;Laerm;54700;51.796;10.956;2022-11-11T11:45:20;61.55;45.62;72.42;;
67900;Laerm;54700;51.796;10.956;2022-11-11T11:48:08;62.25;43.76;71.75;;
67900;Laerm;54700;51.796;10.956;2022-11-11T11:50:44;62.67;42.15;72.83;;
67900;Laerm;54700;51.796;10.956;2022-11-11T11:53:35;62.07;41.95;70.91;;
67900;Laerm;54700;51.796;10.956;2022-11-11T11:56:15;60.46;40.48;70.52;;
67900;Laerm;54700;51.796;10.956;2022-11-11T11:58:57;63.50;39.87;73.51;;
67900;Laerm;54700;51.796;10.956;2022-11-11T12:01:34;62.64;40.02;71.21;;
67900;Laerm;54700;51.796;10.956;2022-11-11T12:07:17;61.88;44.88;69.90;;
67900;Laerm;54700;51.796;10.956;2022-11-11T12:09:57;62.80;50.66;72.34;;
67900;Laerm;54700;51.796;10.956;2022-11-11T12:12:34;65.52;46.49;77.93;;
67900;Laerm;54700;51.796;10.956;2022-11-11T12:15:20;63.10;42.01;72.81;;
67900;Laerm;54700;51.796;10.956;2022-11-11T12:17:59;62.24;46.15;73.99;;
67900;Laerm;54700;51.796;10.956;2022-11-11T12:20:35;62.32;47.45;71.14;;
67900;Laerm;54700;51.796;10.956;2022-11-11T12:23:30;64.66;42.12;73.56;;
67900;Laerm;54700;51.796;10.956;2022-11-11T12:26:09;60.60;41.09;70.93;;
67900;Laerm;54700;51.796;10.956;2022-11-11T12:28:51;61.64;47.00;70.66;;
67900;Laerm;54700;51.796;10.956;2022-11-11T12:31:29;61.94;41.95;69.58;;
67900;Laerm;54700;51.796;10.956;2022-11-11T12:34:15;62.21;50.62;71.82;;
67900;Laerm;54700;51.796;10.956;2022-11-11T12:36:48;61.51;48.52;71.44;;
67900;Laerm;54700;51.796;10.956;2022-11-11T12:39:46;63.34;44.41;80.79;;
67900;Laerm;54700;51.796;10.956;2022-11-11T12:42:33;63.62;52.46;87.74;;
67900;Laerm;54700;51.796;10.956;2022-11-11T12:45:12;61.59;52.07;81.89;;
67900;Laerm;54700;51.796;10.956;2022-11-11T12:47:48;63.33;53.05;83.02;;
67900;Laerm;54700;51.796;10.956;2022-11-11T12:50:20;64.37;52.61;78.92;;
67900;Laerm;54700;51.796;10.956;2022-11-11T12:53:02;64.87;53.08;78.81;;
67900;Laerm;54700;51.796;10.956;2022-11-11T12:55:39;63.26;45.15;74.95;;
67900;Laerm;54700;51.796;10.956;2022-11-11T12:58:18;64.40;43.99;76.56;;
67900;Laerm;54700;51.796;10.956;2022-11-11T13:00:57;63.87;46.48;74.51;;
67900;Laerm;54700;51.796;10.956;2022-11-11T13:03:50;62.77;44.13;76.52;;
67900;Laerm;54700;51.796;10.956;2022-11-11T13:09:22;63.03;47.51;72.36;;
67900;Laerm;54700;51.796;10.956;2022-11-11T13:12:00;63.64;45.82;79.96;;
67900;Laerm;54700;51.796;10.956;2022-11-11T13:14:45;61.35;44.16;69.72;;
67900;Laerm;54700;51.796;10.956;2022-11-11T13:17:14;63.54;46.74;72.88;;
67900;Laerm;54700;51.796;10.956;2022-11-11T13:19:43;62.10;44.33;71.43;;
67900;Laerm;54700;51.796;10.956;2022-11-11T13:22:18;63.04;38.46;79.17;;
67900;Laerm;54700;51.796;10.956;2022-11-11T13:24:47;62.51;49.87;70.08;;
67900;Laerm;54700;51.796;10.956;2022-11-11T13:27:38;63.52;46.29;72.20;;
67900;Laerm;54700;51.796;10.956;2022-11-11T13:33:25;61.64;44.07;70.73;;
67900;Laerm;54700;51.796;10.956;2022-11-11T13:36:01;62.62;47.00;74.09;;
67900;Laerm;54700;51.796;10.956;2022-11-11T13:38:31;61.38;40.63;70.76;;
67900;Laerm;54700;51.796;10.956;2022-11-11T13:41:02;64.75;49.16;73.39;;
67900;Laerm;54700;51.796;10.956;2022-11-11T13:43:34;62.22;38.16;71.62;;
67900;Laerm;54700;51.796;10.956;2022-11-11T13:46:06;62.08;45.88;77.74;;
67900;Laerm;54700;51.796;10.956;2022-11-11T13:48:46;61.62;41.95;71.74;;
67900;Laerm;54700;51.796;10.956;2022-11-11T13:51:21;61.58;42.74;73.47;;
67900;Laerm;54700;51.796;10.956;2022-11-11T13:53:50;65.56;51.93;78.05;;
67900;Laerm;54700;51.796;10.956;2022-11-11T13:56:22;64.48;46.35;74.35;;
67900;Laerm;54700;51.796;10.956;2022-11-11T13:58:52;63.50;41.21;72.27;;
67900;Laerm;54700;51.796;10.956;2022-11-11T14:01:20;63.49;44.50;74.34;;
67900;Laerm;54700;51.796;10.956;2022-11-11T14:03:59;63.20;45.85;73.48;;
67900;Laerm;54700;51.796;10.956;2022-11-11T14:06:49;64.98;47.23;78.37;;
67900;Laerm;54700;51.796;10.956;2022-11-11T14:09:57;63.77;40.26;73.37;;
67900;Laerm;54700;51.796;10.956;2022-11-11T14:12:38;62.56;42.37;72.91;;
67900;Laerm;54700;51.796;10.956;2022-11-11T14:15:33;63.91;48.22;71.17;;
67900;Laerm;54700;51.796;10.956;2022-11-11T14:18:01;62.02;40.28;70.00;;
67900;Laerm;54700;51.796;10.956;2022-11-11T14:20:36;64.42;43.98;72.32;;
67900;Laerm;54700;51.796;10.956;2022-11-11T14:23:29;63.96;42.95;71.45;;
67900;Laerm;54700;51.796;10.956;2022-11-11T14:26:27;65.30;41.17;77.90;;
67900;Laerm;54700;51.796;10.956;2022-11-11T14:28:58;63.01;39.99;71.13;;
67900;Laerm;54700;51.796;10.956;2022-11-11T14:31:56;63.92;48.10;71.57;;
67900;Laerm;54700;51.796;10.956;2022-11-11T14:34:51;63.64;47.04;75.24;;
67900;Laerm;54700;51.796;10.956;2022-11-11T14:37:30;63.27;46.84;71.36;;
67900;Laerm;54700;51.796;10.956;2022-11-11T14:40:09;64.59;39.82;78.28;;